createdAt,value
2022-07-25T00:03:25.511Z,3.83
2022-07-25T00:08:50.582Z,4.15
2022-07-25T00:14:12.428Z,3.97
2022-07-25T00:19:34.271Z,3.85
2022-07-25T00:24:56.095Z,3.45
2022-07-25T00:30:17.963Z,4.07
2022-07-25T00:35:39.796Z,4.25
2022-07-25T00:41:03.831Z,4.50
2022-07-25T00:46:25.745Z,5.30
2022-07-25T00:51:49.847Z,4.85
2022-07-25T00:57:11.732Z,4.85
2022-07-25T01:02:33.660Z,4.57
2022-07-25T01:07:56.119Z,4.88
2022-07-25T01:13:17.960Z,4.78
2022-07-25T01:18:42.736Z,5.03
2022-07-25T01:24:06.155Z,4.82
2022-07-25T01:29:30.213Z,5.10
2022-07-25T01:34:52.033Z,4.70
2022-07-25T01:40:14.559Z,4.95
2022-07-25T01:45:36.724Z,5.70
2022-07-25T01:50:58.569Z,5.35
2022-07-25T01:56:21.912Z,5.20
2022-07-25T02:01:44.615Z,5.35
2022-07-25T02:07:06.509Z,5.18
2022-07-25T02:12:28.497Z,6.00
2022-07-25T02:17:50.318Z,5.03
2022-07-25T02:23:12.162Z,5.63
2022-07-25T02:28:34.062Z,5.90
2022-07-25T02:33:57.042Z,6.50
2022-07-25T02:39:18.865Z,5.85
2022-07-25T02:44:40.656Z,5.88
2022-07-25T02:50:02.505Z,5.47
2022-07-25T02:55:24.346Z,6.03
2022-07-25T03:00:46.198Z,5.63
2022-07-25T03:06:08.122Z,5.70
2022-07-25T03:11:30.065Z,5.20
2022-07-25T03:16:51.919Z,5.97
2022-07-25T03:22:13.761Z,5.18
2022-07-25T03:27:35.600Z,5.45
2022-07-25T03:32:57.447Z,5.07
2022-07-25T03:38:19.426Z,5.10
2022-07-25T03:43:41.278Z,5.20
2022-07-25T03:49:03.331Z,4.80
2022-07-25T03:54:25.246Z,4.60
2022-07-25T03:59:47.084Z,4.25
2022-07-25T04:05:09.812Z,7.03
2022-07-25T04:10:31.804Z,4.10
2022-07-25T04:15:53.582Z,4.00
2022-07-25T04:21:15.385Z,4.32
2022-07-25T04:26:37.187Z,4.30
2022-07-25T04:31:59.061Z,4.00
2022-07-25T04:37:20.981Z,4.15
2022-07-25T04:42:42.779Z,3.33
2022-07-25T04:48:05.372Z,4.57
2022-07-25T04:53:27.238Z,3.53
2022-07-25T04:58:49.066Z,3.47
2022-07-25T05:04:10.915Z,2.70
2022-07-25T05:09:32.760Z,2.60
2022-07-25T05:14:54.583Z,2.72
2022-07-25T05:20:16.447Z,2.75
2022-07-25T05:25:38.426Z,2.55
2022-07-25T05:31:00.288Z,2.67
2022-07-25T05:36:22.139Z,2.17
2022-07-25T05:41:43.952Z,2.28
2022-07-25T05:47:12.900Z,6.60
2022-07-25T05:52:34.815Z,2.00
2022-07-25T05:57:56.652Z,1.90
2022-07-25T06:03:19.185Z,2.13
2022-07-25T06:08:41.062Z,2.17
2022-07-25T06:14:04.462Z,1.92
2022-07-25T06:19:29.073Z,1.95
2022-07-25T06:24:50.911Z,1.80
2022-07-25T06:30:19.713Z,2.00
2022-07-25T06:35:42.167Z,2.17
2022-07-25T06:41:04.055Z,2.10
2022-07-25T06:46:25.932Z,2.05
2022-07-25T06:51:47.790Z,2.00
2022-07-25T06:57:09.575Z,2.17
2022-07-25T07:02:31.444Z,1.73
2022-07-25T07:07:53.566Z,1.95
2022-07-25T07:13:18.506Z,1.77
2022-07-25T07:18:45.794Z,1.80
2022-07-25T07:24:23.964Z,1.77
2022-07-25T07:29:46.683Z,1.77
2022-07-25T07:35:09.457Z,1.80
2022-07-25T07:40:32.065Z,1.53
2022-07-25T07:45:53.861Z,1.33
2022-07-25T07:51:15.799Z,1.45
2022-07-25T07:56:37.642Z,1.58
2022-07-25T08:01:59.627Z,1.80
2022-07-25T08:07:21.572Z,1.30
2022-07-25T08:12:43.509Z,1.67
2022-07-25T08:18:05.405Z,1.40
2022-07-25T08:23:39.929Z,1.67
2022-07-25T08:29:18.279Z,1.85
2022-07-25T08:34:41.371Z,1.63
2022-07-25T08:40:03.675Z,1.35
2022-07-25T08:45:26.766Z,1.35
2022-07-25T08:50:49.594Z,1.70
2022-07-25T08:56:14.874Z,1.55
2022-07-25T09:01:40.788Z,1.48
2022-07-25T09:07:07.792Z,1.40
2022-07-25T09:12:30.305Z,1.77
2022-07-25T09:17:53.237Z,1.70
2022-07-25T09:23:28.638Z,1.95
2022-07-25T09:28:52.160Z,2.08
2022-07-25T09:34:18.041Z,2.58
2022-07-25T09:39:46.940Z,2.10
2022-07-25T09:45:12.138Z,2.20
2022-07-25T09:50:34.053Z,1.90
2022-07-25T09:55:56.483Z,2.20
2022-07-25T10:01:32.858Z,2.40
2022-07-25T10:07:03.625Z,2.30
2022-07-25T10:12:25.492Z,1.80
2022-07-25T10:17:47.363Z,2.10
2022-07-25T10:23:19.031Z,2.20
2022-07-25T10:28:51.453Z,2.00
2022-07-25T10:34:13.294Z,2.28
2022-07-25T10:39:43.038Z,2.17
2022-07-25T10:45:07.188Z,2.03
2022-07-25T10:50:54.539Z,2.08
2022-07-25T10:56:17.533Z,1.92
2022-07-25T11:01:39.551Z,2.33
2022-07-25T11:07:09.080Z,2.20
2022-07-25T11:12:31.225Z,2.22
2022-07-25T11:17:53.945Z,2.17
2022-07-25T11:23:22.007Z,2.22
2022-07-25T11:28:48.862Z,2.20
2022-07-25T11:34:10.815Z,2.45
2022-07-25T11:39:38.703Z,2.40
2022-07-25T11:45:00.568Z,1.88
2022-07-25T11:50:29.958Z,5.07
2022-07-25T11:55:51.792Z,2.13
2022-07-25T12:01:15.818Z,2.10
2022-07-25T12:06:37.662Z,2.20
2022-07-25T12:12:04.181Z,2.38
2022-07-25T12:17:26.048Z,2.13
2022-07-25T12:22:52.641Z,2.38
2022-07-25T12:28:14.856Z,2.10
2022-07-25T12:33:36.705Z,2.35
2022-07-25T12:38:58.556Z,2.15
2022-07-25T12:44:20.378Z,2.25
2022-07-25T12:49:42.382Z,2.13
2022-07-25T12:55:06.785Z,2.30
2022-07-25T13:00:28.734Z,2.10
2022-07-25T13:05:50.598Z,4.32
2022-07-25T13:11:12.609Z,2.20
2022-07-25T13:16:34.570Z,1.92
2022-07-25T13:21:56.485Z,2.28
2022-07-25T13:27:20.123Z,2.20
2022-07-25T13:32:42.079Z,2.00
2022-07-25T13:38:04.173Z,2.10
2022-07-25T13:43:26.025Z,1.83
2022-07-25T13:48:47.898Z,1.98
2022-07-25T13:54:09.741Z,1.80
2022-07-25T13:59:31.626Z,2.30
2022-07-25T14:04:53.486Z,1.73
2022-07-25T14:10:15.581Z,2.40
2022-07-25T14:15:37.492Z,2.60
2022-07-25T14:20:59.578Z,1.60
2022-07-25T14:26:21.478Z,1.80
2022-07-25T14:31:43.377Z,1.95
2022-07-25T14:37:05.398Z,2.00
2022-07-25T14:42:27.530Z,1.88
2022-07-25T14:47:49.362Z,1.80
2022-07-25T14:53:11.195Z,1.75
2022-07-25T14:58:33.757Z,1.42
2022-07-25T15:03:55.649Z,1.98
2022-07-25T15:09:21.051Z,1.95
2022-07-25T15:14:42.845Z,1.92
2022-07-25T15:20:05.225Z,1.88
2022-07-25T15:25:59.915Z,1.60
2022-07-25T15:31:08.964Z,1.70
2022-07-25T15:36:30.872Z,1.60
2022-07-25T15:41:52.714Z,1.80
2022-07-25T15:47:14.670Z,1.70
2022-07-25T15:52:36.537Z,1.75
2022-07-25T15:57:58.623Z,1.95
2022-07-25T16:03:20.523Z,1.70
2022-07-25T16:08:42.409Z,1.67
2022-07-25T16:14:04.607Z,2.10
2022-07-25T16:19:26.444Z,1.95
2022-07-25T16:24:48.353Z,1.55
2022-07-25T16:30:10.610Z,1.55
2022-07-25T16:35:32.574Z,1.85
2022-07-25T16:40:54.666Z,1.55
2022-07-25T16:46:16.588Z,1.98
2022-07-25T16:51:38.441Z,1.83
2022-07-25T16:57:01.043Z,2.88
2022-07-25T17:02:28.886Z,1.90
2022-07-25T17:07:57.062Z,1.85
2022-07-25T17:13:21.353Z,1.70
2022-07-25T17:18:43.219Z,1.75
2022-07-25T17:24:05.355Z,2.00
2022-07-25T17:29:27.299Z,1.42
2022-07-25T17:34:49.153Z,1.70
2022-07-25T17:40:11.487Z,1.58
2022-07-25T17:45:33.406Z,1.98
2022-07-25T17:50:55.215Z,1.95
2022-07-25T17:56:17.083Z,1.90
2022-07-25T18:01:39.107Z,1.20
2022-07-25T18:07:01.025Z,2.00
2022-07-25T18:12:27.437Z,1.27
2022-07-25T18:17:51.385Z,1.52
2022-07-25T18:23:13.222Z,1.75
2022-07-25T18:28:35.936Z,1.65
2022-07-25T18:33:57.834Z,2.03
2022-07-25T18:39:19.666Z,1.92
2022-07-25T18:44:41.505Z,2.30
2022-07-25T18:50:04.264Z,1.92
2022-07-25T18:55:26.091Z,2.20
2022-07-25T19:00:47.894Z,2.63
2022-07-25T19:06:09.983Z,2.30
2022-07-25T19:11:31.796Z,2.97
2022-07-25T19:16:54.668Z,3.03
2022-07-25T19:22:16.667Z,2.80
2022-07-25T19:27:39.704Z,2.83
2022-07-25T19:33:01.512Z,3.15
2022-07-25T19:38:23.358Z,2.80
2022-07-25T19:43:45.236Z,2.95
2022-07-25T19:49:07.169Z,3.33
2022-07-25T19:54:29.023Z,3.25
2022-07-25T19:59:50.850Z,3.17
2022-07-25T20:05:12.739Z,3.42
2022-07-25T20:10:34.554Z,2.78
2022-07-25T20:15:56.792Z,2.92
2022-07-25T20:21:18.908Z,3.28
2022-07-25T20:26:41.167Z,3.10
2022-07-25T20:32:03.619Z,3.08
2022-07-25T20:37:25.683Z,3.28
2022-07-25T20:42:47.825Z,2.80
2022-07-25T20:48:09.941Z,2.92
2022-07-25T20:53:31.786Z,2.70
2022-07-25T20:58:53.581Z,2.83
2022-07-25T21:04:15.415Z,2.97
2022-07-25T21:09:37.249Z,2.90
2022-07-25T21:14:59.071Z,3.13
2022-07-25T21:20:20.879Z,2.92
2022-07-25T21:25:42.832Z,3.30
2022-07-25T21:31:04.786Z,3.15
2022-07-25T21:36:27.581Z,3.80
2022-07-25T21:41:54.957Z,3.38
2022-07-25T21:47:17.453Z,3.95
2022-07-25T21:52:39.331Z,3.78
2022-07-25T21:58:01.198Z,3.78
2022-07-25T22:03:23.118Z,4.22
2022-07-25T22:08:45.228Z,4.40
2022-07-25T22:14:07.129Z,4.18
2022-07-25T22:19:29.119Z,4.20
2022-07-25T22:24:50.989Z,4.22
2022-07-25T22:30:18.207Z,5.25
2022-07-25T22:35:40.906Z,4.55
2022-07-25T22:41:02.838Z,4.65
2022-07-25T22:46:25.333Z,4.65
2022-07-25T22:51:47.257Z,4.60
2022-07-25T22:57:09.106Z,4.90
2022-07-25T23:02:30.990Z,4.40
2022-07-25T23:07:52.847Z,5.00
2022-07-25T23:13:14.691Z,5.20
2022-07-25T23:18:36.546Z,5.13
2022-07-25T23:23:58.442Z,5.05
2022-07-25T23:29:20.300Z,4.85
2022-07-25T23:34:42.207Z,4.70
2022-07-25T23:40:05.121Z,5.30
2022-07-25T23:45:27.621Z,5.07
2022-07-25T23:50:50.353Z,4.90
2022-07-25T23:56:13.474Z,5.40
